Terminal Aerodrome Forecast
Issued by NWS Blacksburg, VA

Home | Current Version | Previous Version | Text Only | Print | Product List | Glossary On
Versions: 1 2 3 4 5 6 7 8 9 10 11 12 13 14 15
000
FTUS41 KRNK 112343
TAFROA
TAF
KROA 112343Z 1200/1224 17006KT P6SM SCT250
     FM120800 23005KT P6SM BKN250
     FM121100 26011KT P6SM BKN100
     FM121300 27017G28KT P6SM BKN045
     FM122200 30020G32KT P6SM SCT040=

USA.gov is the U.S. government's official web portal to all federal, state and local government web resources and services.